Tropical Cyclones
[Index]
Main Index Home Page Stock Weather Photos Extreme Storms Discussion Storm News and Storm Chasing Reports Tropical Cyclones / Hurricanes / Typhoons Weather Data and Links Wild Fires / Bushfires Weather Observation Techniques Weather Picture Catalogue Tornado Pictures and Reports Stock Video Footage and DVDs for sale
Season 1970-1971 Tropical Cyclone MAGGIE-MURIEL Track Map
Season 1970-1971 Summaries: [BoM-AU] [JTWC-AU] [JTWC-SIO] [JTWC-SPAC] [JTWC-SH]
<<- Previous TC | BoM 1970-1971 Season | Next TC ->>

click for intensity scale information  Lat/long Grid: Show Hide

 Date Labels: Show Hide

Bureau of Meteorology Tropical Cyclone Data

Name: MAGGIE-MURIEL
Number: 479 / 197071_18

07 Mar 1971 00:00 UTC to 20 Mar 1971 00:00 UTC

    date/time    lat    long    hPa   cat  kts
1971-03-07 00   10.0    91.0   1004                     
1971-03-07 03   10.1    90.7   1004                     
1971-03-07 06   10.2    90.4   1004                     
1971-03-07 09   10.4    90.1   1004                     
1971-03-07 12   10.5    89.8   1004                     
1971-03-07 15   10.6    89.6   1004                     
1971-03-07 18   10.8    89.4   1004                     
1971-03-07 21   10.9    89.2   1004                     
1971-03-08 00   11.0    89.0   1004                     
1971-03-08 03   11.2    88.7   1004                     
1971-03-08 06   11.3    88.4   1003                     
1971-03-08 09   11.4    88.1   1003                     
1971-03-08 12   11.5    87.8   1002                     
1971-03-08 15   11.6    87.5   1001                     
1971-03-08 18   11.8    87.2   1000                     
1971-03-08 21   11.9    87.1    999                     
1971-03-09 00   12.0    87.0    998                     
1971-03-09 03   12.1    86.9    998                     
1971-03-09 06   12.2    86.8    997                     
1971-03-09 09   12.3    86.7    996                     
1971-03-09 12   12.5    86.6    995    1                
1971-03-09 15   12.6    86.5    994    1                
1971-03-09 18   12.7    86.4    993    1                
1971-03-09 21   12.8    86.2    992    1                
1971-03-10 00   13.0    86.0    990    1                
1971-03-10 03   13.0    85.9    989    1                
1971-03-10 06   13.0    85.8    988    1                
1971-03-10 09   13.0    85.7    986    1                
1971-03-10 12   13.0    85.6    985    2                
1971-03-10 15   13.0    85.5    984    2                
1971-03-10 18   13.0    85.4    983    2                
1971-03-10 21   13.0    85.2    982    2                
1971-03-11 00   13.0    85.0    980    2                
1971-03-11 03   13.0    84.9    979    2                
1971-03-11 06   13.0    84.8    978    2                
1971-03-11 09   13.0    84.7    977    2                
1971-03-11 12   13.0    84.6    976    2                
1971-03-11 15   13.0    84.5    975    2                
1971-03-11 18   13.0    84.2    974    2                
1971-03-11 21   13.0    84.1    973    2                
1971-03-12 00   13.0    84.0    970    3                
1971-03-12 03   13.4    83.5    969    3                
1971-03-12 06   13.8    83.0    968    3                
1971-03-12 09   14.2    82.5    967    3                
1971-03-12 12   14.6    82.0    966    3                
1971-03-12 15   15.0    81.5    965    3                
1971-03-12 18   15.4    81.0    960    3                
1971-03-12 21   15.8    80.5    960    3                
1971-03-13 00   16.0    80.0    960    3                
1971-03-13 03   16.3    79.4    960    3                
1971-03-13 06   16.6    79.2    960    3                
1971-03-13 09   16.9    79.0    960    3                
1971-03-13 12   17.2    78.6    960    3                
1971-03-13 15   17.5    78.4    960    3                
1971-03-13 18   17.8    78.2    960    3                
1971-03-13 21   18.1    78.0    960    3                
1971-03-14 00   18.4    77.6    958    3                
1971-03-14 03   18.7    77.2    958    3                
1971-03-14 06   18.8    77.0    958    3                
1971-03-14 09   19.2    76.6    957    3                
1971-03-14 12   19.5    76.2    957    3                
1971-03-14 15   19.8    75.8    957    3                
1971-03-14 18   20.1    75.4    956    3                
1971-03-14 21   20.4    75.0    956    3                
1971-03-15 00   20.7    74.6    956    3                
1971-03-15 03   21.0    74.2    955    4                
1971-03-15 06   21.2    73.8    954    4                
1971-03-15 09   21.5    73.4    954    4                
1971-03-15 12   21.8    73.0    953    4                
1971-03-15 15   21.9    72.8    952    4                
1971-03-15 18   22.0    72.5    951    4                
1971-03-15 21   22.0    72.3    950    4                
1971-03-16 00   22.0    72.0    950    4                
1971-03-16 03   22.3    72.5    950    4                
1971-03-16 06   22.6    73.0    951    4                
1971-03-16 09   22.9    73.5    952    4                
1971-03-16 12   23.2    74.0    953    4                
1971-03-16 15   23.5    74.5    954    4                
1971-03-16 18   23.8    75.0    955    4                
1971-03-16 21   24.0    75.5    956    3                
1971-03-17 00   25.0    76.0    957    3                
1971-03-17 03   26.0    76.0    958    3                
1971-03-17 06   27.0    76.0    959    3                
1971-03-17 09   28.0    76.5    960    3                
1971-03-17 12   29.0    77.0    962    3                
1971-03-17 15   30.0    77.5    964    3                
1971-03-17 18   31.0    78.0    966    3                
1971-03-17 21   33.0    79.0    968    3                
1971-03-18 00   35.0    81.0    970    3                
1971-03-19 00   36.0    94.0    998                     
1971-03-20 00   40.0   100.0   1000                     
Winds are 10-min average.

Tropical cyclone tracks developed by Michael Bath using data from the Bureau of Meteorology and Google Maps.


[Australian Severe Weather index] [Copyright Notice] [Email Contacts] [Search This Site] [Privacy Policy]
Document: tropical_cyclone_maggie-muriel.htm Updated: 30 May 2013